createdAt,value
2022-12-18T00:00:06.256Z,102895.97
2022-12-18T00:05:15.529Z,102895.94
2022-12-18T00:10:19.430Z,102888.03
2022-12-18T00:15:24.237Z,102887.94
2022-12-18T00:20:26.663Z,102895.72
2022-12-18T00:25:29.024Z,102883.50
2022-12-18T00:30:30.853Z,102887.03
2022-12-18T00:35:36.589Z,102894.03
2022-12-18T00:40:38.246Z,102897.56
2022-12-18T00:45:46.994Z,102897.56
2022-12-18T00:50:51.551Z,102901.97
2022-12-18T00:55:55.916Z,102913.25
2022-12-18T01:00:57.617Z,102922.75
2022-12-18T01:06:05.775Z,102916.59
2022-12-18T01:11:21.413Z,102924.41
2022-12-18T01:16:26.054Z,102924.44
2022-12-18T01:21:28.197Z,102943.66
2022-12-18T01:26:31.991Z,102947.31
2022-12-18T01:31:34.739Z,102957.13
2022-12-18T01:36:39.926Z,102954.63
2022-12-18T01:42:02.173Z,102958.91
2022-12-18T01:47:11.539Z,102969.53
2022-12-18T01:52:14.583Z,102965.38
2022-12-18T01:57:18.510Z,102967.19
2022-12-18T02:02:22.681Z,102960.38
2022-12-18T02:07:49.283Z,102963.94
2022-12-18T02:12:56.452Z,102956.22
2022-12-18T02:18:05.462Z,102958.00
2022-12-18T02:23:25.314Z,102961.63
2022-12-18T02:28:34.682Z,102948.69
2022-12-18T02:33:41.532Z,102955.75
2022-12-18T02:38:45.664Z,102941.88
2022-12-18T02:43:59.620Z,102956.75
2022-12-18T02:49:13.701Z,102955.09
2022-12-18T02:54:59.680Z,102949.00
2022-12-18T03:00:06.948Z,102961.22
2022-12-18T03:05:14.812Z,102961.31
2022-12-18T03:10:21.923Z,102958.91
2022-12-18T03:15:31.705Z,102952.88
2022-12-18T03:20:45.792Z,102948.59
2022-12-18T03:25:53.049Z,102935.59
2022-12-18T03:31:00.298Z,102944.38
2022-12-18T03:36:05.308Z,102943.47
2022-12-18T03:41:30.074Z,102936.63
2022-12-18T03:47:11.487Z,102932.31
2022-12-18T03:52:19.641Z,102921.91
2022-12-18T03:57:26.629Z,102919.38
2022-12-18T04:02:31.004Z,102923.75
2022-12-18T04:07:36.438Z,102923.75
2022-12-18T04:12:40.718Z,102909.88
2022-12-18T04:17:51.407Z,102909.88
2022-12-18T04:23:00.081Z,102917.78
2022-12-18T04:28:03.515Z,102930.81
2022-12-18T04:33:14.107Z,102934.34
2022-12-18T04:38:18.562Z,102941.34
2022-12-18T04:43:23.420Z,102944.91
2022-12-18T04:48:29.468Z,102964.03
2022-12-18T04:53:36.748Z,102965.00
2022-12-18T04:58:42.768Z,102972.03
2022-12-18T05:03:45.186Z,102977.31
2022-12-18T05:08:49.050Z,102965.28
2022-12-18T05:13:50.862Z,102973.09
2022-12-18T05:19:03.876Z,102969.63
2022-12-18T05:24:06.193Z,102965.34
2022-12-18T05:29:08.870Z,102974.91
2022-12-18T05:34:10.634Z,102977.53
2022-12-18T05:39:15.640Z,102981.09
2022-12-18T05:44:19.945Z,102982.03
2022-12-18T05:49:23.912Z,102979.41
2022-12-18T05:54:28.368Z,102977.72
2022-12-18T05:59:34.905Z,102975.16
2022-12-18T06:04:39.633Z,102983.81
2022-12-18T06:09:44.649Z,102981.22
2022-12-18T06:14:46.416Z,102991.63
2022-12-18T06:19:48.062Z,102996.84
2022-12-18T06:24:49.860Z,102996.84
2022-12-18T06:29:54.173Z,102991.72
2022-12-18T06:34:58.448Z,102989.22
2022-12-18T06:40:02.650Z,102983.16
2022-12-18T06:45:08.953Z,102989.25
2022-12-18T06:50:10.922Z,102992.69
2022-12-18T06:55:15.093Z,103004.03
2022-12-18T07:00:19.398Z,102999.69
2022-12-18T07:05:24.443Z,102999.72
2022-12-18T07:10:26.351Z,102996.25
2022-12-18T07:15:34.091Z,102992.78
2022-12-18T07:20:38.117Z,102998.81
2022-12-18T07:25:42.204Z,102992.72
2022-12-18T07:30:43.933Z,102999.63
2022-12-18T07:35:47.903Z,102997.97
2022-12-18T07:40:50.104Z,103008.41
2022-12-18T07:45:54.167Z,103001.53
2022-12-18T07:51:02.050Z,102989.31
2022-12-18T08:01:30.867Z,102991.66
2022-12-18T08:06:33.064Z,103000.25
2022-12-18T08:11:37.244Z,103009.69
2022-12-18T08:16:41.463Z,103025.25
2022-12-18T08:21:43.185Z,103015.53
2022-12-18T08:26:55.880Z,103004.94
2022-12-18T08:32:07.182Z,103007.47
2022-12-18T08:37:08.980Z,103003.88
2022-12-18T08:42:31.928Z,103002.88
2022-12-18T08:47:36.474Z,102987.13
2022-12-18T08:52:40.935Z,102993.91
2022-12-18T08:57:42.668Z,103003.38
2022-12-18T09:02:47.428Z,103008.44
2022-12-18T09:07:49.392Z,103010.84
2022-12-18T09:12:51.296Z,103036.78
2022-12-18T09:17:55.208Z,103047.97
2022-12-18T09:23:00.268Z,103046.06
2022-12-18T09:28:07.972Z,103045.03
2022-12-18T09:33:15.002Z,103037.09
2022-12-18T09:38:20.902Z,103039.53
2022-12-18T09:43:37.056Z,103033.25
2022-12-18T09:48:49.115Z,103026.28
2022-12-18T09:54:00.904Z,103049.59
2022-12-18T09:59:05.085Z,103036.47
2022-12-18T10:04:15.246Z,103032.81
2022-12-18T10:09:37.455Z,103030.19
2022-12-18T10:14:53.320Z,103031.84
2022-12-18T10:20:08.397Z,103021.94
2022-12-18T10:25:28.973Z,103027.81
2022-12-18T10:30:33.677Z,103024.13
2022-12-18T10:35:36.048Z,103021.94
2022-12-18T10:40:50.924Z,102997.03
2022-12-18T10:46:04.607Z,102987.88
2022-12-18T10:51:13.032Z,102982.38
2022-12-18T10:56:21.316Z,102978.44
2022-12-18T11:01:23.368Z,102976.97
2022-12-18T11:06:37.113Z,102977.47
2022-12-18T11:11:38.859Z,102983.28
2022-12-18T11:17:03.024Z,102970.56
2022-12-18T11:22:20.026Z,102959.22
2022-12-18T11:27:22.068Z,102957.88
2022-12-18T11:32:33.149Z,102957.59
2022-12-18T11:37:35.219Z,102939.88
2022-12-18T11:42:49.854Z,102917.59
2022-12-18T11:48:15.216Z,102904.03
2022-12-18T11:53:23.763Z,102906.63
2022-12-18T11:58:50.458Z,102903.78
2022-12-18T12:04:03.460Z,102881.56
2022-12-18T12:09:49.189Z,102891.75
2022-12-18T12:15:11.512Z,102891.03
2022-12-18T12:20:16.783Z,102884.34
2022-12-18T12:25:51.117Z,102868.50
2022-12-18T12:31:04.139Z,102858.09
2022-12-18T12:36:49.941Z,102850.81
2022-12-18T12:42:10.540Z,102851.09
2022-12-18T12:47:28.922Z,102856.53
2022-12-18T12:52:47.582Z,102851.47
2022-12-18T12:58:12.257Z,102843.75
2022-12-18T13:03:32.129Z,102842.81
2022-12-18T13:08:57.827Z,102832.44
2022-12-18T13:14:05.041Z,102822.78
2022-12-18T13:19:22.877Z,102831.38
2022-12-18T13:24:27.822Z,102811.25
2022-12-18T13:29:44.977Z,102798.97
2022-12-18T13:35:39.921Z,102795.50
2022-12-18T13:40:48.054Z,102794.69
2022-12-18T13:46:29.153Z,102789.53
2022-12-18T13:51:33.010Z,102787.97
2022-12-18T13:56:45.470Z,102776.03
2022-12-18T14:01:55.195Z,102771.88
2022-12-18T14:07:04.102Z,102766.09
2022-12-18T14:12:51.796Z,102758.47
2022-12-18T14:17:56.932Z,102751.84
2022-12-18T14:23:01.685Z,102744.22
2022-12-18T14:28:16.055Z,102726.25
2022-12-18T14:33:28.451Z,102726.50
2022-12-18T14:38:40.098Z,102732.63
2022-12-18T14:43:47.813Z,102719.47
2022-12-18T14:48:58.501Z,102709.66
2022-12-18T14:54:04.056Z,102700.00
2022-12-18T14:59:23.865Z,102691.13
2022-12-18T15:04:36.154Z,102677.03
2022-12-18T15:09:38.876Z,102674.38
2022-12-18T15:14:45.521Z,102653.41
2022-12-18T15:19:51.247Z,102636.75
2022-12-18T15:24:56.999Z,102625.47
2022-12-18T15:30:27.066Z,102627.25
2022-12-18T15:35:28.852Z,102627.25
2022-12-18T15:40:30.655Z,102626.31
2022-12-18T15:45:36.899Z,102615.84
2022-12-18T15:50:41.557Z,102627.13
2022-12-18T15:56:03.028Z,102619.38
2022-12-18T16:01:04.875Z,102605.47
2022-12-18T16:06:10.558Z,102598.47
2022-12-18T16:11:43.554Z,102592.38
2022-12-18T16:16:51.105Z,102574.88
2022-12-18T16:21:54.290Z,102559.06
2022-12-18T16:27:00.326Z,102551.03
2022-12-18T16:32:02.745Z,102536.81
2022-12-18T16:37:07.106Z,102521.09
2022-12-18T16:42:17.863Z,102525.91
2022-12-18T16:47:23.969Z,102503.50
2022-12-18T16:52:31.103Z,102495.88
2022-12-18T16:57:35.390Z,102493.25
2022-12-18T17:02:38.758Z,102494.09
2022-12-18T17:07:42.778Z,102503.81
2022-12-18T17:12:44.427Z,102501.91
2022-12-18T17:17:46.169Z,102488.81
2022-12-18T17:22:50.077Z,102472.03
2022-12-18T17:27:52.767Z,102471.31
2022-12-18T17:33:00.246Z,102458.25
2022-12-18T17:38:01.884Z,102433.72
2022-12-18T17:43:05.790Z,102410.97
2022-12-18T17:48:13.140Z,102401.25
2022-12-18T17:53:18.848Z,102411.66
2022-12-18T17:58:21.690Z,102429.97
2022-12-18T18:03:24.802Z,102414.06
2022-12-18T18:08:27.262Z,102394.06
2022-12-18T18:13:47.381Z,102384.44
2022-12-18T18:18:51.535Z,102355.50
2022-12-18T18:23:55.602Z,102359.72
2022-12-18T18:29:01.975Z,102356.09
2022-12-18T18:34:11.387Z,102336.69
2022-12-18T18:39:13.916Z,102348.03
2022-12-18T18:44:20.524Z,102340.22
2022-12-18T18:49:27.677Z,102326.44
2022-12-18T18:54:51.918Z,102340.47
2022-12-18T19:00:03.880Z,102327.28
2022-12-18T19:05:06.169Z,102327.25
2022-12-18T19:10:11.439Z,102314.13
2022-12-18T19:15:13.691Z,102327.94
2022-12-18T19:20:18.936Z,102311.94
2022-12-18T19:25:21.231Z,102318.03
2022-12-18T19:30:23.704Z,102322.38
2022-12-18T19:35:28.115Z,102330.88
2022-12-18T19:40:31.612Z,102285.28
2022-12-18T19:45:34.311Z,102305.22
2022-12-18T19:50:44.443Z,102307.66
2022-12-18T19:55:48.243Z,102292.75
2022-12-18T20:00:53.707Z,102291.09
2022-12-18T20:05:55.534Z,102297.28
2022-12-18T20:10:57.355Z,102299.19
2022-12-18T20:16:02.868Z,102308.25
2022-12-18T20:21:13.606Z,102294.50
2022-12-18T20:26:20.253Z,102304.28
2022-12-18T20:31:24.729Z,102297.38
2022-12-18T20:36:26.926Z,102299.22
2022-12-18T20:41:37.907Z,102283.53
2022-12-18T20:46:42.991Z,102271.34
2022-12-18T20:51:50.370Z,102281.78
2022-12-18T20:56:55.744Z,102286.09
2022-12-18T21:01:58.650Z,102283.34
2022-12-18T21:07:03.077Z,102270.16
2022-12-18T21:12:29.366Z,102257.88
2022-12-18T21:17:41.118Z,102263.22
2022-12-18T21:22:47.226Z,102240.44
2022-12-18T21:27:51.234Z,102236.72
2022-12-18T21:32:55.885Z,102236.13
2022-12-18T21:37:57.612Z,102226.63
2022-12-18T21:43:20.572Z,102233.88
2022-12-18T21:48:26.028Z,102238.25
2022-12-18T21:53:27.748Z,102215.50
2022-12-18T21:58:29.417Z,102209.25
2022-12-18T22:03:32.144Z,102203.06
2022-12-18T22:08:34.285Z,102207.41
2022-12-18T22:13:35.952Z,102193.41
2022-12-18T22:18:39.999Z,102196.81
2022-12-18T22:23:44.645Z,102192.44
2022-12-18T22:29:10.127Z,102187.09
2022-12-18T22:34:14.472Z,102179.88
2022-12-18T22:39:22.080Z,102173.59
2022-12-18T22:44:26.711Z,102162.97
2022-12-18T22:49:33.919Z,102157.38
2022-12-18T22:54:37.188Z,102152.03
2022-12-18T22:59:39.198Z,102145.81
2022-12-18T23:04:47.431Z,102140.25
2022-12-18T23:09:50.775Z,102122.56
2022-12-18T23:15:03.579Z,102119.78
2022-12-18T23:20:06.073Z,102130.28
2022-12-18T23:25:10.875Z,102126.59
2022-12-18T23:30:12.908Z,102104.59
2022-12-18T23:35:18.689Z,102094.09
2022-12-18T23:40:20.368Z,102079.09
2022-12-18T23:45:22.001Z,102071.91
2022-12-18T23:50:29.026Z,102066.59
2022-12-18T23:55:31.787Z,102068.03
